Time;durP1;ratioP1;P1;durP2;ratioP2;P2;SDS_P1;SDS_P2;PMS_P1;PMS_P2;Temp;Humidity;BMP_temperature;BMP_pressure;BME280_temperature;BME280_humidity;BME280_pressure;Samples;Min_cycle;Max_cycle;Signal;HPM_P1;HPM_P2
2023/01/23 00:01:16;;;;;;;6.25;2.03;;;3.40;87.50;;;;;;5013638;28;20486;-46
2023/01/23 00:03:46;;;;;;;9.02;2.50;;;3.40;87.50;;;;;;5016139;28;20026;-46
2023/01/23 00:06:14;;;;;;;5.75;1.95;;;3.40;87.80;;;;;;5032709;28;20099;-45
2023/01/23 00:08:44;;;;;;;5.60;2.10;;;3.40;87.90;;;;;;5023665;28;20038;-46
2023/01/23 00:11:23;;;;;;;5.82;2.55;;;3.30;87.90;;;;;;5012876;28;20036;-46
2023/01/23 00:13:51;;;;;;;4.68;1.70;;;3.30;87.90;;;;;;5013034;28;20046;-45
2023/01/23 00:16:21;;;;;;;3.70;1.58;;;3.30;87.90;;;;;;5012842;28;20045;-46
2023/01/23 00:18:48;;;;;;;6.45;2.25;;;3.30;87.90;;;;;;5024414;28;20482;-46
2023/01/23 00:21:19;;;;;;;8.05;2.83;;;3.20;87.80;;;;;;5032782;28;20036;-46
2023/01/23 00:23:51;;;;;;;9.40;2.70;;;3.20;87.90;;;;;;5029669;28;20028;-46
2023/01/23 00:26:28;;;;;;;5.03;2.30;;;3.20;87.80;;;;;;5032623;28;20026;-46
2023/01/23 00:28:55;;;;;;;5.47;2.40;;;3.20;88.10;;;;;;5032988;28;20025;-46
2023/01/23 00:31:24;;;;;;;8.40;2.40;;;3.20;88.00;;;;;;5031636;28;20028;-46
2023/01/23 00:33:56;;;;;;;11.50;3.63;;;3.30;88.10;;;;;;5028967;28;20068;-46
2023/01/23 00:36:28;;;;;;;4.57;1.92;;;3.20;88.10;;;;;;5028681;28;20046;-49
2023/01/23 00:38:56;;;;;;;6.45;2.03;;;3.30;88.00;;;;;;5012598;28;20052;-46
2023/01/23 00:41:23;;;;;;;9.55;2.80;;;3.30;88.10;;;;;;5013096;28;20022;-46
2023/01/23 00:43:51;;;;;;;8.15;2.47;;;3.30;88.20;;;;;;5012757;28;20109;-46
2023/01/23 00:46:19;;;;;;;4.70;2.00;;;3.30;88.10;;;;;;5029267;28;20030;-46
2023/01/23 00:48:46;;;;;;;4.90;2.60;;;3.30;88.20;;;;;;5030946;28;20362;-46
2023/01/23 00:51:13;;;;;;;7.15;2.47;;;3.30;88.20;;;;;;5013190;28;20022;-45
2023/01/23 00:53:41;;;;;;;4.50;1.70;;;3.30;88.10;;;;;;5011898;28;20022;-46
2023/01/23 00:56:08;;;;;;;6.00;2.33;;;3.30;88.10;;;;;;5012950;28;20033;-47
2023/01/23 00:58:35;;;;;;;4.95;2.08;;;3.30;88.10;;;;;;5012848;28;20026;-46
2023/01/23 01:01:02;;;;;;;7.82;2.65;;;3.20;88.20;;;;;;5014024;28;20522;-45
2023/01/23 01:03:29;;;;;;;7.57;2.17;;;3.30;88.10;;;;;;5034922;28;20044;-45
2023/01/23 01:05:56;;;;;;;5.75;2.33;;;3.20;88.00;;;;;;5030358;28;20121;-46
2023/01/23 01:08:25;;;;;;;6.57;2.03;;;3.20;88.00;;;;;;5016582;28;20029;-46
2023/01/23 01:10:51;;;;;;;7.32;2.50;;;3.20;88.00;;;;;;5016528;28;20026;-45
2023/01/23 01:13:22;;;;;;;6.88;2.65;;;3.20;88.00;;;;;;5031613;28;20052;-46
2023/01/23 01:15:51;;;;;;;6.75;2.92;;;3.20;88.10;;;;;;5030104;28;20037;-46
2023/01/23 01:18:22;;;;;;;5.45;2.08;;;3.20;88.10;;;;;;5031023;28;20034;-49
2023/01/23 01:20:49;;;;;;;5.00;2.97;;;3.20;88.00;;;;;;5033689;28;20060;-48
2023/01/23 01:23:19;;;;;;;6.65;2.60;;;3.20;87.80;;;;;;5025967;28;20057;-46
2023/01/23 01:25:46;;;;;;;6.68;2.35;;;3.20;87.90;;;;;;5015172;28;20040;-46
2023/01/23 01:28:13;;;;;;;7.82;2.67;;;3.20;87.80;;;;;;5015910;28;20030;-46
2023/01/23 01:30:42;;;;;;;5.07;2.28;;;3.30;87.60;;;;;;5035599;28;20033;-46
2023/01/23 01:33:10;;;;;;;7.82;2.70;;;3.30;87.40;;;;;;5031110;28;20022;-47
2023/01/23 01:35:39;;;;;;;4.43;2.60;;;3.30;87.40;;;;;;5034651;28;20025;-46
2023/01/23 01:38:05;;;;;;;7.10;3.05;;;3.30;87.50;;;;;;5022691;28;20451;-45
2023/01/23 01:40:36;;;;;;;8.60;2.83;;;3.20;87.60;;;;;;5031500;28;20033;-45
2023/01/23 01:43:08;;;;;;;4.65;2.67;;;3.30;87.60;;;;;;5015605;28;20061;-46
2023/01/23 01:46:27;;;;;;;9.75;3.15;;;3.30;87.60;;;;;;5014758;28;20030;-46
2023/01/23 01:49:15;;;;;;;6.03;2.13;;;3.30;87.70;;;;;;5030392;28;20030;-46
2023/01/23 01:52:03;;;;;;;7.53;2.67;;;3.30;87.80;;;;;;5025363;28;20399;-46
2023/01/23 01:54:33;;;;;;;8.88;3.10;;;3.20;87.90;;;;;;5015731;28;20404;-46
2023/01/23 01:57:15;;;;;;;11.88;2.67;;;3.30;87.90;;;;;;5030760;28;20439;-46
2023/01/23 02:00:09;;;;;;;5.32;2.58;;;3.30;87.80;;;;;;5015379;28;20032;-46
2023/01/23 02:02:57;;;;;;;8.35;2.50;;;3.30;87.70;;;;;;5021871;28;20589;-46
2023/01/23 02:05:34;;;;;;;7.78;2.50;;;3.30;87.60;;;;;;5021918;28;20054;-46
2023/01/23 02:08:15;;;;;;;6.63;2.63;;;3.30;87.50;;;;;;5015087;28;20434;-47
2023/01/23 02:10:42;;;;;;;7.15;2.80;;;3.30;87.40;;;;;;5014208;28;20034;-47
2023/01/23 02:13:34;;;;;;;9.25;3.05;;;3.30;87.30;;;;;;5014866;28;20501;-46
2023/01/23 02:16:07;;;;;;;6.00;2.58;;;3.30;87.30;;;;;;5020081;28;20034;-46
2023/01/23 02:18:38;;;;;;;8.52;2.70;;;3.30;87.30;;;;;;5033858;28;20095;-45
2023/01/23 02:21:09;;;;;;;6.18;2.97;;;3.20;87.40;;;;;;5030606;28;20434;-45
2023/01/23 02:23:49;;;;;;;6.13;2.47;;;3.30;87.30;;;;;;5023511;28;20033;-46
2023/01/23 02:26:23;;;;;;;9.82;3.05;;;3.30;87.30;;;;;;5034669;28;20040;-46
2023/01/23 02:28:52;;;;;;;5.15;2.50;;;3.20;87.30;;;;;;5021876;28;20061;-47
2023/01/23 02:31:19;;;;;;;5.90;2.75;;;3.30;87.20;;;;;;5018730;28;20538;-47
2023/01/23 02:33:57;;;;;;;7.18;3.20;;;3.30;87.00;;;;;;5028289;28;20443;-49
2023/01/23 02:36:31;;;;;;;3.72;2.15;;;3.30;87.00;;;;;;5015030;28;20018;-46
2023/01/23 02:39:20;;;;;;;11.07;2.90;;;3.30;87.10;;;;;;5020988;28;20065;-47
2023/01/23 02:41:49;;;;;;;10.93;2.97;;;3.30;87.10;;;;;;5034118;28;20026;-45
2023/01/23 02:44:33;;;;;;;5.22;3.30;;;3.30;87.10;;;;;;5032778;28;20053;-47
2023/01/23 02:47:10;;;;;;;9.43;3.30;;;3.30;87.10;;;;;;5031320;28;20124;-48
2023/01/23 02:49:39;;;;;;;5.22;2.63;;;3.30;87.20;;;;;;5034326;28;20026;-48
2023/01/23 02:52:06;;;;;;;5.25;2.90;;;3.30;87.10;;;;;;5015349;28;20183;-46
2023/01/23 02:54:32;;;;;;;9.20;2.88;;;3.30;87.20;;;;;;5020047;28;20100;-49
2023/01/23 02:56:58;;;;;;;6.05;2.55;;;3.30;87.30;;;;;;5019985;28;20177;-46
2023/01/23 03:02:11;;;;;;;7.28;3.15;;;3.30;87.50;;;;;;5019966;28;20032;-45
2023/01/23 03:04:36;;;;;;;6.05;2.90;;;3.30;87.40;;;;;;5033831;28;20025;-46
2023/01/23 03:07:03;;;;;;;9.00;3.45;;;3.20;87.50;;;;;;5027748;28;20044;-47
2023/01/23 03:09:30;;;;;;;5.68;4.07;;;3.20;87.50;;;;;;5029643;28;20119;-46
2023/01/23 03:11:57;;;;;;;5.05;3.28;;;3.20;87.50;;;;;;5013045;28;20036;-46
2023/01/23 03:14:23;;;;;;;6.93;3.22;;;3.20;87.50;;;;;;5012893;28;20037;-44
2023/01/23 03:16:52;;;;;;;6.30;3.47;;;3.30;87.40;;;;;;5020543;28;20028;-46
2023/01/23 03:19:22;;;;;;;7.30;3.57;;;3.20;87.40;;;;;;5032470;28;20022;-47
2023/01/23 03:21:53;;;;;;;10.40;3.38;;;3.20;87.40;;;;;;5013072;28;20088;-44
2023/01/23 03:24:20;;;;;;;4.75;2.88;;;3.20;87.50;;;;;;5013377;28;20111;-45
2023/01/23 03:26:48;;;;;;;8.73;3.38;;;3.30;87.40;;;;;;5014035;28;20140;-47
2023/01/23 03:32:07;;;;;;;7.43;3.40;;;3.20;87.60;;;;;;5020048;28;20044;-45
2023/01/23 03:34:33;;;;;;;6.07;3.95;;;3.30;87.60;;;;;;5031086;28;20032;-46
2023/01/23 03:37:02;;;;;;;7.07;4.07;;;3.30;87.60;;;;;;5033388;28;20147;-48
2023/01/23 03:42:14;;;;;;;10.70;4.25;;;3.20;87.80;;;;;;5019589;28;20072;-46
2023/01/23 03:44:40;;;;;;;9.98;4.15;;;3.20;87.90;;;;;;5013507;28;20029;-49
2023/01/23 03:47:06;;;;;;;8.65;4.60;;;3.20;88.00;;;;;;5018345;28;20030;-47
2023/01/23 03:49:33;;;;;;;8.13;4.38;;;3.20;88.00;;;;;;5033393;28;20048;-46
2023/01/23 03:52:00;;;;;;;7.82;4.20;;;3.20;88.10;;;;;;5016745;28;20037;-46
2023/01/23 03:54:27;;;;;;;9.60;4.57;;;3.20;88.20;;;;;;5027236;28;20048;-46
2023/01/23 03:56:53;;;;;;;8.38;4.78;;;3.20;88.40;;;;;;5012737;28;20459;-49
2023/01/23 03:59:19;;;;;;;7.18;4.55;;;3.20;88.50;;;;;;5013515;28;20042;-49
2023/01/23 04:01:47;;;;;;;9.70;4.53;;;3.20;88.60;;;;;;5012300;28;20092;-45
2023/01/23 04:04:13;;;;;;;8.27;5.07;;;3.20;88.70;;;;;;5030364;28;20123;-48
2023/01/23 04:06:40;;;;;;;7.30;4.60;;;3.10;88.80;;;;;;5033155;28;20049;-46
2023/01/23 04:09:06;;;;;;;9.32;5.78;;;3.20;89.00;;;;;;5033133;28;20021;-46
2023/01/23 04:11:33;;;;;;;7.05;5.20;;;3.10;89.00;;;;;;5033032;28;20503;-48
2023/01/23 04:14:03;;;;;;;8.88;5.55;;;3.20;88.90;;;;;;5014047;28;20359;-46
2023/01/23 04:16:32;;;;;;;7.32;5.18;;;3.10;89.00;;;;;;5013082;28;20420;-48
2023/01/23 04:19:01;;;;;;;8.50;5.60;;;3.10;89.00;;;;;;5029243;28;20037;-46
2023/01/23 04:21:28;;;;;;;8.90;4.90;;;3.10;89.20;;;;;;5031713;28;20092;-45
2023/01/23 04:23:55;;;;;;;11.98;5.63;;;3.10;89.20;;;;;;5012367;28;20030;-46
2023/01/23 04:26:22;;;;;;;10.63;4.80;;;3.10;89.40;;;;;;5013332;28;20363;-47
2023/01/23 04:28:49;;;;;;;10.13;5.85;;;3.10;89.60;;;;;;5013110;28;20440;-45
2023/01/23 04:31:16;;;;;;;10.40;5.60;;;3.10;89.70;;;;;;5013151;28;20030;-46
2023/01/23 04:33:46;;;;;;;11.80;5.03;;;3.10;89.80;;;;;;5030963;28;20026;-45
2023/01/23 04:36:13;;;;;;;10.50;5.93;;;3.10;90.00;;;;;;5032680;28;20021;-46
2023/01/23 04:38:39;;;;;;;11.50;5.95;;;3.10;90.00;;;;;;5030625;28;20458;-46
2023/01/23 04:41:12;;;;;;;8.52;5.28;;;3.00;90.10;;;;;;5035768;28;20462;-48
2023/01/23 04:43:39;;;;;;;9.25;5.85;;;3.10;90.20;;;;;;5028007;28;20033;-46
2023/01/23 04:46:07;;;;;;;7.15;5.28;;;3.00;90.30;;;;;;5016675;28;20022;-46
2023/01/23 04:48:33;;;;;;;11.93;5.97;;;3.00;90.40;;;;;;5028441;28;20029;-46
2023/01/23 04:51:00;;;;;;;9.82;5.85;;;3.00;90.40;;;;;;5016186;28;20117;-45
2023/01/23 04:53:26;;;;;;;8.88;5.57;;;3.00;90.40;;;;;;5016239;28;20342;-46
2023/01/23 04:55:54;;;;;;;9.77;5.95;;;3.00;90.40;;;;;;5015714;28;20026;-45
2023/01/23 04:58:23;;;;;;;8.50;5.70;;;2.90;90.40;;;;;;5016671;28;20105;-47
2023/01/23 05:00:50;;;;;;;11.57;6.55;;;2.90;90.40;;;;;;5016484;28;20337;-46
2023/01/23 05:03:17;;;;;;;10.10;6.05;;;2.90;90.50;;;;;;5026699;28;20033;-45
2023/01/23 05:05:44;;;;;;;11.20;6.47;;;2.90;90.50;;;;;;5034455;28;20459;-47
2023/01/23 05:08:11;;;;;;;10.02;5.90;;;2.90;90.50;;;;;;5033678;28;20052;-47
2023/01/23 05:10:37;;;;;;;13.05;6.60;;;2.90;90.60;;;;;;5016729;28;20038;-47
2023/01/23 05:13:04;;;;;;;9.60;5.80;;;2.90;90.70;;;;;;5015226;28;20056;-45
2023/01/23 05:15:31;;;;;;;7.50;5.53;;;2.90;90.70;;;;;;5030557;28;20470;-46
2023/01/23 05:17:58;;;;;;;11.48;6.25;;;2.90;90.70;;;;;;5023721;28;20064;-46
2023/01/23 05:20:25;;;;;;;12.10;6.18;;;2.90;90.80;;;;;;5030781;28;20030;-46
2023/01/23 05:22:52;;;;;;;11.88;7.00;;;2.90;90.80;;;;;;5016219;28;20041;-46
2023/01/23 05:25:25;;;;;;;9.60;5.72;;;2.90;90.80;;;;;;5016300;28;20025;-46
2023/01/23 05:27:54;;;;;;;8.07;5.78;;;2.90;90.80;;;;;;5015707;28;20073;-45
2023/01/23 05:30:22;;;;;;;14.70;6.78;;;2.90;90.70;;;;;;5016276;28;20033;-47
2023/01/23 05:32:48;;;;;;;9.23;6.07;;;2.90;90.60;;;;;;5023563;28;20040;-46
2023/01/23 05:35:15;;;;;;;7.10;5.80;;;2.90;90.60;;;;;;5034937;28;20022;-48
2023/01/23 05:37:42;;;;;;;12.10;6.28;;;2.90;90.70;;;;;;5027686;28;20348;-45
2023/01/23 05:40:12;;;;;;;9.85;5.55;;;2.90;90.70;;;;;;5016034;28;20041;-45
2023/01/23 05:42:38;;;;;;;;;;;2.90;90.70;;;;;;5016164;28;20413;-49
2023/01/23 05:45:06;;;;;;;13.32;6.25;;;2.90;90.70;;;;;;5015966;28;19960;-45
2023/01/23 05:47:36;;;;;;;10.82;6.57;;;2.90;90.70;;;;;;5033840;28;20429;-51
2023/01/23 05:50:06;;;;;;;10.35;5.95;;;2.90;90.70;;;;;;5015505;28;20052;-46
2023/01/23 05:52:34;;;;;;;9.10;5.88;;;2.90;90.70;;;;;;5015546;28;20033;-46
2023/01/23 05:55:01;;;;;;;13.70;7.05;;;2.90;90.80;;;;;;5034923;28;20029;-46
2023/01/23 05:57:28;;;;;;;10.68;5.95;;;2.80;90.80;;;;;;5001769;28;20061;-47
2023/01/23 05:59:54;;;;;;;9.02;6.68;;;2.80;90.90;;;;;;5024172;28;20030;-45
2023/01/23 06:02:23;;;;;;;12.02;7.78;;;2.80;91.00;;;;;;5034993;28;20140;-47
2023/01/23 06:04:50;;;;;;;8.50;6.07;;;2.80;91.00;;;;;;5019226;28;20068;-46
2023/01/23 06:07:18;;;;;;;14.57;6.65;;;2.80;90.90;;;;;;5035086;28;20034;-46
2023/01/23 06:09:45;;;;;;;11.85;6.00;;;2.80;91.00;;;;;;5029853;28;20030;-50
2023/01/23 06:12:12;;;;;;;12.48;7.10;;;2.80;91.00;;;;;;5014251;28;20022;-48
2023/01/23 06:14:41;;;;;;;12.98;6.30;;;2.70;91.00;;;;;;5015187;28;20726;-48
2023/01/23 06:17:07;;;;;;;11.77;6.55;;;2.80;91.00;;;;;;4995887;28;20041;-45
2023/01/23 06:19:34;;;;;;;10.27;6.50;;;2.80;90.80;;;;;;5014987;28;20041;-45
2023/01/23 06:22:01;;;;;;;12.35;6.18;;;2.80;90.90;;;;;;5014629;28;20044;-45
2023/01/23 06:24:28;;;;;;;10.95;6.72;;;2.80;90.90;;;;;;5014077;28;20033;-46
2023/01/23 06:26:54;;;;;;;12.27;6.30;;;2.80;90.80;;;;;;5014758;28;20503;-45
2023/01/23 06:29:23;;;;;;;15.80;6.60;;;2.80;90.80;;;;;;5014877;28;20117;-46
2023/01/23 06:31:48;;;;;;;10.85;6.95;;;2.80;90.80;;;;;;5027973;28;20018;-46
2023/01/23 06:34:15;;;;;;;9.85;6.53;;;2.80;90.70;;;;;;5033669;28;20044;-47
2023/01/23 06:36:45;;;;;;;8.88;5.95;;;2.80;90.80;;;;;;5034412;28;20037;-46
2023/01/23 06:39:14;;;;;;;9.60;5.93;;;2.80;90.80;;;;;;5019586;28;20033;-46
2023/01/23 06:41:41;;;;;;;12.75;6.35;;;2.70;90.80;;;;;;5030313;28;20057;-46
2023/01/23 06:44:08;;;;;;;9.63;5.78;;;2.80;90.80;;;;;;5014415;28;20104;-45
2023/01/23 06:46:35;;;;;;;13.80;6.15;;;2.70;90.80;;;;;;5022587;28;20088;-46
2023/01/23 06:49:03;;;;;;;13.25;6.72;;;2.80;90.70;;;;;;5034241;28;20049;-46
2023/01/23 06:51:29;;;;;;;9.05;6.13;;;2.80;90.70;;;;;;5019874;28;20132;-46
2023/01/23 06:53:55;;;;;;;10.20;6.18;;;2.80;90.70;;;;;;5014598;28;20029;-46
2023/01/23 06:56:22;;;;;;;11.30;7.75;;;2.70;90.70;;;;;;5014111;28;20448;-47
2023/01/23 06:58:49;;;;;;;12.05;7.00;;;2.80;90.70;;;;;;5014139;28;20058;-46
2023/01/23 07:01:18;;;;;;;10.95;6.43;;;2.70;90.80;;;;;;5021359;28;20036;-46
2023/01/23 07:03:45;;;;;;;9.60;6.80;;;2.80;90.80;;;;;;5034257;28;20443;-46
2023/01/23 07:06:13;;;;;;;14.52;6.32;;;2.70;90.80;;;;;;5028626;28;20467;-46
2023/01/23 07:08:41;;;;;;;10.70;6.53;;;2.80;90.80;;;;;;5034102;28;20025;-45
2023/01/23 07:11:08;;;;;;;9.77;6.50;;;2.80;90.90;;;;;;5012004;28;20052;-47
2023/01/23 07:13:35;;;;;;;14.55;7.03;;;2.80;90.80;;;;;;5014087;28;20440;-48
2023/01/23 07:16:03;;;;;;;10.55;6.85;;;2.80;90.70;;;;;;5016665;28;20037;-45
2023/01/23 07:18:31;;;;;;;12.48;7.03;;;2.70;90.80;;;;;;5033355;28;20037;-47
2023/01/23 07:20:59;;;;;;;14.77;7.97;;;2.70;90.80;;;;;;5031409;28;20029;-47
2023/01/23 07:23:25;;;;;;;14.02;7.47;;;2.70;90.90;;;;;;5030499;28;20678;-45
2023/01/23 07:25:58;;;;;;;12.88;7.85;;;2.80;90.90;;;;;;5017613;28;20056;-46
2023/01/23 07:28:25;;;;;;;13.02;6.40;;;2.70;90.80;;;;;;5032818;28;20022;-48
2023/01/23 07:30:52;;;;;;;11.98;7.25;;;2.70;90.90;;;;;;5032200;28;20100;-49
2023/01/23 07:33:18;;;;;;;14.27;8.98;;;2.70;91.00;;;;;;5030296;28;20025;-48
2023/01/23 07:35:45;;;;;;;11.98;7.55;;;2.70;91.10;;;;;;5033663;28;20024;-46
2023/01/23 07:38:13;;;;;;;13.48;7.97;;;2.70;91.20;;;;;;5032182;28;20037;-45
2023/01/23 07:40:44;;;;;;;13.20;7.82;;;2.70;91.10;;;;;;5033367;28;20025;-46
2023/01/23 07:43:11;;;;;;;11.80;7.97;;;2.70;91.10;;;;;;5014217;28;20037;-47
2023/01/23 07:45:38;;;;;;;14.02;8.25;;;2.70;91.20;;;;;;5015384;28;20072;-48
2023/01/23 07:48:05;;;;;;;14.80;8.13;;;2.80;91.20;;;;;;5029886;28;20044;-46
2023/01/23 07:50:34;;;;;;;17.38;9.35;;;2.70;91.10;;;;;;5028488;28;20363;-46
2023/01/23 07:53:02;;;;;;;13.60;9.25;;;2.80;91.20;;;;;;5012293;28;20032;-46
2023/01/23 07:55:31;;;;;;;14.80;8.50;;;2.70;91.20;;;;;;5012123;28;20038;-48
2023/01/23 07:57:57;;;;;;;12.35;7.78;;;2.80;91.20;;;;;;5019190;28;20347;-44
2023/01/23 08:00:24;;;;;;;13.68;7.72;;;2.80;91.20;;;;;;5013512;28;20111;-47
2023/01/23 08:02:50;;;;;;;16.42;9.07;;;2.80;91.10;;;;;;5033226;28;20090;-47
2023/01/23 08:05:17;;;;;;;16.90;9.10;;;2.80;91.00;;;;;;5018842;28;20092;-46
2023/01/23 08:07:44;;;;;;;15.50;8.85;;;2.80;91.00;;;;;;5012621;28;20443;-46
2023/01/23 08:10:10;;;;;;;11.80;8.07;;;2.80;91.00;;;;;;5014182;28;20030;-46
2023/01/23 08:12:38;;;;;;;15.18;8.73;;;2.80;91.10;;;;;;5016571;28;20030;-46
2023/01/23 08:15:07;;;;;;;15.75;8.70;;;2.90;90.90;;;;;;5019694;28;20105;-47
2023/01/23 08:17:36;;;;;;;11.85;7.70;;;2.90;91.00;;;;;;5024802;28;20026;-46
2023/01/23 08:20:03;;;;;;;17.20;8.60;;;2.80;90.90;;;;;;5017576;28;20034;-48
2023/01/23 08:22:29;;;;;;;10.88;7.57;;;2.90;91.00;;;;;;5016012;28;20040;-45
2023/01/23 08:24:56;;;;;;;13.57;7.88;;;2.90;91.00;;;;;;5037026;28;20039;-45
2023/01/23 08:27:24;;;;;;;15.65;7.78;;;2.90;91.20;;;;;;5023308;28;20035;-47
2023/01/23 08:29:51;;;;;;;13.48;8.55;;;2.90;91.10;;;;;;5016074;28;20459;-48
2023/01/23 08:32:18;;;;;;;15.18;8.23;;;2.90;90.90;;;;;;5035273;28;20025;-46
2023/01/23 08:34:45;;;;;;;12.75;9.27;;;2.90;90.90;;;;;;5036895;28;20064;-48
2023/01/23 08:37:12;;;;;;;14.88;8.45;;;2.90;91.00;;;;;;5033808;28;20029;-48
2023/01/23 08:39:38;;;;;;;12.45;9.23;;;3.00;90.80;;;;;;5035418;28;20040;-45
2023/01/23 08:42:05;;;;;;;13.27;8.40;;;3.00;90.70;;;;;;5035037;28;20095;-46
2023/01/23 08:44:33;;;;;;;11.90;8.57;;;3.00;90.70;;;;;;5017143;28;20105;-47
2023/01/23 08:47:03;;;;;;;14.27;9.02;;;3.10;90.70;;;;;;5033597;28;20029;-45
2023/01/23 08:49:30;;;;;;;12.52;9.20;;;3.10;90.50;;;;;;5034335;28;20029;-46
2023/01/23 08:51:57;;;;;;;14.65;9.13;;;3.10;90.50;;;;;;5028262;28;20036;-46
2023/01/23 08:54:25;;;;;;;13.43;8.63;;;3.10;90.40;;;;;;5017341;28;20080;-48
2023/01/23 08:56:52;;;;;;;11.95;7.63;;;3.10;90.20;;;;;;5016769;28;20088;-47
2023/01/23 08:59:19;;;;;;;13.73;7.97;;;3.10;90.10;;;;;;5016051;28;20049;-46
2023/01/23 09:01:47;;;;;;;13.98;8.57;;;3.20;90.20;;;;;;5028489;28;20386;-46
2023/01/23 09:04:15;;;;;;;13.10;7.80;;;3.20;90.10;;;;;;5032484;28;20056;-46
2023/01/23 09:06:43;;;;;;;10.52;8.32;;;3.30;90.10;;;;;;5016195;28;20483;-46
2023/01/23 09:09:09;;;;;;;13.35;7.72;;;3.30;90.00;;;;;;5028396;28;20188;-46
2023/01/23 09:11:34;;;;;;;12.32;8.23;;;3.40;89.90;;;;;;5036124;28;20094;-47
2023/01/23 09:14:01;;;;;;;16.35;12.20;;;3.30;89.70;;;;;;5016336;28;20359;-47
2023/01/23 09:16:28;;;;;;;24.48;16.98;;;3.30;89.60;;;;;;5024767;28;20037;-47
2023/01/23 09:18:55;;;;;;;26.13;15.93;;;3.30;89.50;;;;;;5028355;28;20036;-48
2023/01/23 09:21:20;;;;;;;21.25;14.88;;;3.30;89.50;;;;;;5015887;28;20030;-47
2023/01/23 09:23:47;;;;;;;15.85;8.95;;;3.40;89.70;;;;;;5014842;28;20390;-46
2023/01/23 09:26:14;;;;;;;11.82;8.68;;;3.40;89.60;;;;;;5016001;28;20041;-47
2023/01/23 09:28:42;;;;;;;15.13;10.95;;;3.50;89.70;;;;;;5015052;28;20030;-48
2023/01/23 09:31:13;;;;;;;15.40;10.15;;;3.50;89.50;;;;;;5024711;28;20029;-46
2023/01/23 09:33:39;;;;;;;16.00;8.38;;;3.50;89.40;;;;;;5033718;28;20030;-45
2023/01/23 09:36:08;;;;;;;11.40;8.43;;;3.60;89.40;;;;;;5035592;28;20040;-46
2023/01/23 09:38:40;;;;;;;13.33;8.20;;;3.60;89.20;;;;;;5027574;28;20026;-47
2023/01/23 09:41:27;;;;;;;12.23;8.35;;;3.70;89.00;;;;;;5015969;28;20312;-46
2023/01/23 09:44:10;;;;;;;16.48;9.93;;;3.70;88.70;;;;;;4998537;28;20355;-45
2023/01/23 09:46:53;;;;;;;15.88;9.27;;;3.70;88.70;;;;;;5022741;28;20026;-47
2023/01/23 09:49:52;;;;;;;13.70;8.90;;;3.70;88.80;;;;;;5014621;28;20033;-46
2023/01/23 09:52:28;;;;;;;12.93;8.57;;;3.70;88.30;;;;;;5014694;28;20018;-50
2023/01/23 09:55:31;;;;;;;12.63;9.55;;;3.70;88.20;;;;;;5018608;28;20125;-48
2023/01/23 09:57:59;;;;;;;15.52;9.82;;;3.80;88.50;;;;;;5015413;28;20056;-48
2023/01/23 10:00:32;;;;;;;13.52;8.95;;;3.80;88.20;;;;;;5015181;28;20439;-47
2023/01/23 10:03:14;;;;;;;14.60;10.68;;;3.80;88.20;;;;;;5032466;28;20041;-47
2023/01/23 10:06:02;;;;;;;10.63;7.68;;;3.80;88.20;;;;;;5017912;28;20390;-46
2023/01/23 10:08:54;;;;;;;14.32;9.07;;;3.80;87.90;;;;;;5035056;28;20036;-47
2023/01/23 10:11:33;;;;;;;12.70;9.02;;;3.80;87.80;;;;;;5028547;28;20044;-46
2023/01/23 10:14:10;;;;;;;9.82;7.43;;;3.90;88.00;;;;;;5014368;28;20057;-45
2023/01/23 10:17:03;;;;;;;10.95;7.65;;;3.90;88.00;;;;;;5019660;28;20033;-45
2023/01/23 10:20:02;;;;;;;11.88;7.18;;;3.90;87.80;;;;;;5030458;28;20036;-45
2023/01/23 10:23:04;;;;;;;10.65;8.65;;;3.90;88.00;;;;;;5014860;28;20029;-47
2023/01/23 10:25:40;;;;;;;14.75;7.80;;;3.90;87.70;;;;;;5003297;28;20463;-46
2023/01/23 10:28:16;;;;;;;11.18;7.88;;;3.90;87.80;;;;;;5013925;28;20037;-47
2023/01/23 10:30:50;;;;;;;13.15;7.55;;;4.00;87.80;;;;;;5020393;28;20036;-46
2023/01/23 10:33:19;;;;;;;11.75;7.90;;;3.90;87.50;;;;;;4981985;28;20117;-49
2023/01/23 10:35:52;;;;;;;10.63;8.55;;;4.00;87.70;;;;;;5013876;28;20030;-48
2023/01/23 10:38:36;;;;;;;12.73;8.07;;;4.00;87.20;;;;;;5014876;28;20127;-46
2023/01/23 10:41:12;;;;;;;13.88;7.55;;;4.00;87.60;;;;;;5014517;28;20041;-47
2023/01/23 10:43:43;;;;;;;13.27;8.48;;;4.00;87.40;;;;;;5013864;28;20030;-49
2023/01/23 10:46:18;;;;;;;12.15;7.07;;;3.90;87.20;;;;;;5023698;28;20038;-47
2023/01/23 10:49:03;;;;;;;11.60;7.75;;;3.90;87.10;;;;;;5017860;28;20022;-46
2023/01/23 10:51:49;;;;;;;12.73;7.25;;;4.00;87.10;;;;;;5014655;28;20026;-48
2023/01/23 10:54:25;;;;;;;11.60;7.22;;;4.00;87.20;;;;;;5014757;28;20046;-46
2023/01/23 10:56:57;;;;;;;13.82;8.20;;;4.00;86.70;;;;;;5013719;28;20467;-46
2023/01/23 11:00:03;;;;;;;10.80;6.65;;;4.00;86.70;;;;;;5026900;28;20091;-47
2023/01/23 11:02:49;;;;;;;12.38;7.43;;;4.00;86.50;;;;;;5014435;28;20056;-47
2023/01/23 11:05:37;;;;;;;10.45;7.90;;;4.10;86.90;;;;;;5014165;28;20061;-46
2023/01/23 11:08:36;;;;;;;10.30;8.30;;;4.10;86.80;;;;;;5029634;28;20443;-46
2023/01/23 11:11:30;;;;;;;10.15;7.25;;;4.10;86.60;;;;;;5014396;28;20030;-46
2023/01/23 11:14:21;;;;;;;13.15;7.45;;;4.20;86.70;;;;;;5021933;28;20029;-48
2023/01/23 11:17:01;;;;;;;9.93;7.32;;;4.20;86.60;;;;;;5014450;28;20036;-48
2023/01/23 11:19:30;;;;;;;9.63;6.83;;;4.30;86.90;;;;;;5011707;28;20048;-46
2023/01/23 11:22:01;;;;;;;10.83;7.87;;;4.30;86.70;;;;;;5011014;28;20367;-46
2023/01/23 11:24:34;;;;;;;9.88;6.68;;;4.40;86.10;;;;;;5028118;28;20044;-46
2023/01/23 11:27:15;;;;;;;11.65;7.40;;;4.30;85.90;;;;;;5028188;28;20188;-46
2023/01/23 11:30:24;;;;;;;9.15;7.53;;;4.40;85.70;;;;;;5013896;28;20149;-46
2023/01/23 11:33:13;;;;;;;9.85;6.72;;;4.40;86.10;;;;;;5013228;28;20120;-46
2023/01/23 11:35:59;;;;;;;9.57;6.70;;;4.40;86.10;;;;;;5014273;28;20030;-46
2023/01/23 11:38:27;;;;;;;12.60;7.40;;;4.40;86.00;;;;;;5031755;28;20060;-48
2023/01/23 11:40:53;;;;;;;9.88;7.00;;;4.40;85.60;;;;;;5032499;28;20025;-45
2023/01/23 11:43:22;;;;;;;7.55;6.25;;;4.40;85.20;;;;;;5015251;28;20029;-47
2023/01/23 11:46:31;;;;;;;10.68;6.80;;;4.30;85.20;;;;;;5012178;28;20068;-45
2023/01/23 11:49:15;;;;;;;;;;;4.30;85.60;;;;;;5027305;28;20040;-49
2023/01/23 11:52:25;;;;;;;9.95;6.88;;;4.20;85.60;;;;;;5032515;28;20378;-46
2023/01/23 11:55:21;;;;;;;12.02;7.28;;;4.20;86.10;;;;;;5032920;28;20094;-46
2023/01/23 11:58:13;;;;;;;9.15;7.28;;;4.30;86.20;;;;;;5013475;28;20494;-46
2023/01/23 12:01:09;;;;;;;9.30;6.97;;;4.30;85.80;;;;;;5013609;28;20022;-46
2023/01/23 12:04:12;;;;;;;9.30;7.28;;;4.30;86.00;;;;;;5014016;28;20337;-47
2023/01/23 12:06:55;;;;;;;10.13;7.47;;;4.30;85.60;;;;;;5016784;28;20495;-47
2023/01/23 12:09:28;;;;;;;10.15;7.13;;;4.30;85.60;;;;;;5031928;28;20029;-47
2023/01/23 12:12:22;;;;;;;10.90;6.78;;;4.40;85.70;;;;;;5012112;28;20084;-45
2023/01/23 12:15:04;;;;;;;9.15;6.70;;;4.50;85.40;;;;;;5021864;28;20037;-48
2023/01/23 12:17:41;;;;;;;9.50;6.78;;;4.50;85.40;;;;;;5013241;28;20433;-48
2023/01/23 12:20:29;;;;;;;10.68;7.38;;;4.50;85.50;;;;;;5016944;28;20041;-45
2023/01/23 12:23:15;;;;;;;11.85;7.50;;;4.60;85.40;;;;;;5030065;28;20040;-44
2023/01/23 12:25:52;;;;;;;7.38;6.43;;;4.60;85.20;;;;;;5032485;28;20037;-46
2023/01/23 12:28:35;;;;;;;12.40;6.70;;;4.50;85.20;;;;;;5015238;28;20538;-45
2023/01/23 12:31:18;;;;;;;9.27;7.22;;;4.60;85.50;;;;;;5027810;28;20036;-46
2023/01/23 12:34:08;;;;;;;11.07;7.65;;;4.70;85.60;;;;;;5027026;28;20017;-47
2023/01/23 12:36:56;;;;;;;13.23;7.65;;;4.60;85.20;;;;;;5013231;28;20025;-46
2023/01/23 12:39:40;;;;;;;9.80;6.10;;;4.50;84.70;;;;;;5013120;28;20038;-47
2023/01/23 12:42:31;;;;;;;8.77;6.90;;;4.50;84.80;;;;;;5013278;28;20101;-49
2023/01/23 12:45:24;;;;;;;32.63;17.98;;;4.40;84.60;;;;;;5013135;28;20132;-48
2023/01/23 12:48:14;;;;;;;13.57;10.77;;;4.40;84.80;;;;;;5014428;28;20061;-46
2023/01/23 12:50:56;;;;;;;13.70;10.90;;;4.40;85.10;;;;;;5029359;28;20510;-48
2023/01/23 12:53:23;;;;;;;11.48;8.30;;;4.40;85.20;;;;;;5013061;28;20080;-48
2023/01/23 12:56:22;;;;;;;11.93;8.95;;;4.50;85.20;;;;;;5012790;28;20113;-46
2023/01/23 12:59:20;;;;;;;8.88;7.88;;;4.50;85.00;;;;;;5032574;28;20021;-45
2023/01/23 13:02:27;;;;;;;9.90;7.68;;;4.40;85.30;;;;;;5018136;28;20049;-45
2023/01/23 13:05:40;;;;;;;10.40;7.25;;;4.40;85.30;;;;;;5035287;28;20080;-46
2023/01/23 13:08:30;;;;;;;10.13;6.63;;;4.40;84.90;;;;;;5026270;28;20042;-48
2023/01/23 13:14:00;;;;;;;8.88;6.15;;;4.40;85.20;;;;;;5021691;28;20099;-48
2023/01/23 13:16:29;;;;;;;14.63;7.00;;;4.40;85.40;;;;;;5015666;28;20030;-47
2023/01/23 13:22:16;;;;;;;10.98;8.70;;;4.50;85.30;;;;;;5032306;28;20100;-45
2023/01/23 13:25:18;;;;;;;9.38;7.13;;;4.50;84.60;;;;;;5015756;28;20028;-48
2023/01/23 13:27:58;;;;;;;9.90;7.10;;;4.40;85.40;;;;;;5014959;28;20045;-46
2023/01/23 13:30:35;;;;;;;9.98;7.40;;;4.40;85.40;;;;;;5017442;28;20105;-47
2023/01/23 13:33:12;;;;;;;8.98;7.28;;;4.40;85.50;;;;;;5033964;28;20053;-46
2023/01/23 13:35:38;;;;;;;11.93;7.65;;;4.30;85.40;;;;;;5034299;28;20040;-49
2023/01/23 13:38:41;;;;;;;11.60;7.90;;;4.20;85.10;;;;;;5034829;28;20034;-46